Time;durP1;ratioP1;P1;durP2;ratioP2;P2;SDS_P1;SDS_P2;PMS_P1;PMS_P2;Temp;Humidity;BMP_temperature;BMP_pressure;BME280_temperature;BME280_humidity;BME280_pressure;Samples;Min_cycle;Max_cycle;Signal;HPM_P1;HPM_P2
2021/01/22 00:00:48;;;;;;;6.63;2.30;;;;;;;;;;6394816;22;20395;-50
2021/01/22 00:03:15;;;;;;;7.80;4.50;;;;;;;;;;6368828;22;20415;-53
2021/01/22 00:05:43;;;;;;;11.40;3.30;;;;;;;;;;6395134;22;20408;-52
2021/01/22 00:08:10;;;;;;;7.88;3.80;;;;;;;;;;6394890;22;20466;-48
2021/01/22 00:10:37;;;;;;;6.83;4.03;;;;;;;;;;6395253;22;20162;-53
2021/01/22 00:13:05;;;;;;;16.60;10.10;;;;;;;;;;6395273;22;20415;-46
2021/01/22 00:15:32;;;;;;;5.37;3.20;;;;;;;;;;6395456;22;20447;-50
2021/01/22 00:17:58;;;;;;;12.07;8.50;;;;;;;;;;6395382;22;20377;-51
2021/01/22 00:20:45;;;;;;;6.03;2.20;;;;;;;;;;6395213;22;20202;-48
2021/01/22 00:23:12;;;;;;;6.07;2.97;;;;;;;;;;6395390;22;20395;-52
2021/01/22 00:25:39;;;;;;;3.87;1.83;;;;;;;;;;6395276;22;20388;-56
2021/01/22 00:28:23;;;;;;;7.87;2.63;;;;;;;;;;6395329;22;20503;-56
2021/01/22 00:30:49;;;;;;;9.30;4.33;;;;;;;;;;6395521;22;20410;-51
2021/01/22 00:33:16;;;;;;;5.77;3.43;;;;;;;;;;6396100;22;20375;-52
2021/01/22 00:35:50;;;;;;;23.57;10.40;;;;;;;;;;6394826;22;20448;-51
2021/01/22 00:38:18;;;;;;;8.17;2.47;;;;;;;;;;6395477;22;20417;-48
2021/01/22 00:40:45;;;;;;;46.93;28.17;;;;;;;;;;6394833;22;20445;-45
2021/01/22 00:43:29;;;;;;;13.70;6.93;;;;;;;;;;6395380;22;20420;-53
2021/01/22 00:45:56;;;;;;;15.05;8.55;;;;;;;;;;6394369;22;20516;-50
2021/01/22 00:48:23;;;;;;;18.03;10.00;;;;;;;;;;6394582;22;20193;-51
2021/01/22 00:50:50;;;;;;;10.23;5.50;;;;;;;;;;6395138;22;20426;-52
2021/01/22 00:53:17;;;;;;;10.83;6.73;;;;;;;;;;6395488;22;20405;-51
2021/01/22 00:56:00;;;;;;;10.30;4.50;;;;;;;;;;6395471;22;20435;-51
2021/01/22 00:58:27;;;;;;;9.60;4.20;;;;;;;;;;6394921;22;20407;-59
2021/01/22 01:00:54;;;;;;;12.70;5.03;;;;;;;;;;6394656;22;20522;-51
2021/01/22 01:03:21;;;;;;;10.73;4.90;;;;;;;;;;6395123;22;20412;-56
2021/01/22 01:05:49;;;;;;;6.03;2.93;;;;;;;;;;6394798;22;20396;-49
2021/01/22 01:08:39;;;;;;;11.87;6.10;;;;;;;;;;6395691;22;20384;-55
2021/01/22 01:11:07;;;;;;;10.80;5.50;;;;;;;;;;6394664;22;20399;-49
2021/01/22 01:13:37;;;;;;;19.37;10.57;;;;;;;;;;6395297;22;20672;-53
2021/01/22 01:16:06;;;;;;;11.50;5.90;;;;;;;;;;6395259;22;20443;-52
2021/01/22 01:18:33;;;;;;;8.80;3.50;;;;;;;;;;6395040;22;20947;-56
2021/01/22 01:21:02;;;;;;;9.67;4.20;;;;;;;;;;6394843;22;20403;-57
2021/01/22 01:23:29;;;;;;;9.47;4.80;;;;;;;;;;6394303;22;20422;-53
2021/01/22 01:25:57;;;;;;;5.90;2.37;;;;;;;;;;6393938;22;20397;-54
2021/01/22 01:28:40;;;;;;;5.17;1.80;;;;;;;;;;6394603;22;20431;-51
2021/01/22 01:31:06;;;;;;;8.03;3.93;;;;;;;;;;6394758;22;20407;-49
2021/01/22 01:33:34;;;;;;;5.57;2.37;;;;;;;;;;6394508;22;20399;-43
2021/01/22 01:36:11;;;;;;;8.07;4.30;;;;;;;;;;6394573;22;20442;-53
2021/01/22 01:38:38;;;;;;;4.00;1.60;;;;;;;;;;6395174;22;20422;-56
2021/01/22 01:41:25;;;;;;;5.80;2.53;;;;;;;;;;6396389;22;20413;-51
2021/01/22 01:47:07;;;;;;;8.20;3.50;;;;;;;;;;6386548;22;20410;-52
2021/01/22 01:49:38;;;;;;;5.53;2.87;;;;;;;;;;6397085;22;20405;-53
2021/01/22 01:52:16;;;;;;;9.20;4.47;;;;;;;;;;6397734;22;20415;-57
2021/01/22 01:54:55;;;;;;;6.10;3.50;;;;;;;;;;6397460;22;20477;-55
2021/01/22 01:57:33;;;;;;;5.43;3.57;;;;;;;;;;6397988;22;20422;-54
2021/01/22 02:00:01;;;;;;;7.07;3.10;;;;;;;;;;6396410;22;20395;-52
2021/01/22 02:02:48;;;;;;;4.33;1.70;;;;;;;;;;6397666;22;20420;-48
2021/01/22 02:05:36;;;;;;;4.83;1.80;;;;;;;;;;6396824;22;20442;-55
2021/01/22 02:08:25;;;;;;;5.90;2.80;;;;;;;;;;6396926;22;20423;-53
2021/01/22 02:10:57;;;;;;;2.97;1.30;;;;;;;;;;6397402;22;20413;-47
2021/01/22 02:13:33;;;;;;;1.90;0.80;;;;;;;;;;6397976;22;20420;-51
2021/01/22 02:16:30;;;;;;;11.23;3.10;;;;;;;;;;6397553;22;20519;-51
2021/01/22 02:19:08;;;;;;;6.87;1.10;;;;;;;;;;6396753;22;20442;-49
2021/01/22 02:21:37;;;;;;;4.17;1.13;;;;;;;;;;6397070;22;20404;-58
2021/01/22 02:24:12;;;;;;;2.88;0.90;;;;;;;;;;6397464;22;20418;-44
2021/01/22 02:27:02;;;;;;;3.97;0.70;;;;;;;;;;6397429;22;20166;-52
2021/01/22 02:29:32;;;;;;;2.35;0.70;;;;;;;;;;6371862;22;20165;-52
2021/01/22 02:32:05;;;;;;;2.05;1.00;;;;;;;;;;6396263;22;20181;-50
2021/01/22 02:34:37;;;;;;;2.47;1.20;;;;;;;;;;6396703;22;20181;-49
2021/01/22 02:37:05;;;;;;;4.82;1.65;;;;;;;;;;6395429;22;20235;-50
2021/01/22 02:39:37;;;;;;;2.10;0.90;;;;;;;;;;6396690;22;20168;-52
2021/01/22 02:42:11;;;;;;;3.05;1.00;;;;;;;;;;6397161;22;20192;-53
2021/01/22 02:44:38;;;;;;;4.10;1.75;;;;;;;;;;6396980;22;20227;-49
2021/01/22 02:47:09;;;;;;;2.95;0.90;;;;;;;;;;6397371;22;20246;-54
2021/01/22 02:49:36;;;;;;;2.60;1.10;;;;;;;;;;6396024;22;20170;-56
2021/01/22 02:52:03;;;;;;;4.35;1.92;;;;;;;;;;6396991;22;20272;-51
2021/01/22 02:54:30;;;;;;;4.60;2.20;;;;;;;;;;6396823;22;20176;-52
2021/01/22 02:57:01;;;;;;;3.10;1.60;;;;;;;;;;6396205;22;20200;-52
2021/01/22 02:59:35;;;;;;;2.00;1.20;;;;;;;;;;6396607;22;20162;-49
2021/01/22 03:02:13;;;;;;;3.08;2.05;;;;;;;;;;6396748;22;20161;-54
2021/01/22 03:04:41;;;;;;;2.58;1.63;;;;;;;;;;6396066;22;20254;-54
2021/01/22 03:07:10;;;;;;;3.72;1.85;;;;;;;;;;6395732;22;20172;-54
2021/01/22 03:09:46;;;;;;;3.38;2.00;;;;;;;;;;6396485;22;20524;-53
2021/01/22 03:12:14;;;;;;;3.75;1.50;;;;;;;;;;6397177;22;20199;-50
2021/01/22 03:14:43;;;;;;;2.40;1.80;;;;;;;;;;6397248;22;20191;-50
2021/01/22 03:17:35;;;;;;;2.28;1.60;;;;;;;;;;6396472;22;20187;-50
2021/01/22 03:20:06;;;;;;;2.88;1.85;;;;;;;;;;6333390;22;20207;-49
2021/01/22 03:22:32;;;;;;;3.05;1.63;;;;;;;;;;6333689;22;20222;-48
2021/01/22 03:25:06;;;;;;;3.22;2.60;;;;;;;;;;6333457;22;20184;-52
2021/01/22 03:27:33;;;;;;;4.15;2.50;;;;;;;;;;6334808;22;20183;-50
2021/01/22 03:30:01;;;;;;;2.70;2.00;;;;;;;;;;6335157;22;20178;-57
2021/01/22 03:32:30;;;;;;;3.17;1.85;;;;;;;;;;6334915;22;20155;-48
2021/01/22 03:34:57;;;;;;;3.17;2.28;;;;;;;;;;6334170;22;20190;-56
2021/01/22 03:37:23;;;;;;;3.13;2.22;;;;;;;;;;6334177;22;20188;-54
2021/01/22 03:39:50;;;;;;;2.60;2.00;;;;;;;;;;6333818;22;20179;-51
2021/01/22 03:42:17;;;;;;;3.42;2.70;;;;;;;;;;6333922;22;20236;-55
2021/01/22 03:44:44;;;;;;;4.22;2.50;;;;;;;;;;6332779;22;20209;-52
2021/01/22 03:47:11;;;;;;;4.05;2.40;;;;;;;;;;6332631;22;20168;-52
2021/01/22 03:50:00;;;;;;;4.53;2.85;;;;;;;;;;6332230;22;20181;-52
2021/01/22 03:52:27;;;;;;;4.07;3.60;;;;;;;;;;6332842;22;20167;-48
2021/01/22 03:54:54;;;;;;;8.10;3.63;;;;;;;;;;6332957;22;20253;-55
2021/01/22 03:57:24;;;;;;;3.75;3.15;;;;;;;;;;6332634;22;20625;-51
2021/01/22 03:59:50;;;;;;;4.82;3.85;;;;;;;;;;6372157;22;20204;-48
2021/01/22 04:02:19;;;;;;;4.65;3.30;;;;;;;;;;6396298;22;20170;-48
2021/01/22 04:04:52;;;;;;;5.45;3.88;;;;;;;;;;6395526;22;20193;-51
2021/01/22 04:07:19;;;;;;;4.32;3.92;;;;;;;;;;6395933;22;20192;-54
2021/01/22 04:09:46;;;;;;;4.80;3.90;;;;;;;;;;6395563;22;20179;-53
2021/01/22 04:12:18;;;;;;;4.10;3.60;;;;;;;;;;6395765;22;20179;-53
2021/01/22 04:14:44;;;;;;;4.00;3.63;;;;;;;;;;6395266;22;20197;-54
2021/01/22 04:17:11;;;;;;;5.55;4.18;;;;;;;;;;6395865;22;20212;-45
2021/01/22 04:19:52;;;;;;;6.00;4.85;;;;;;;;;;6395733;22;20163;-52
2021/01/22 04:22:19;;;;;;;3.92;3.53;;;;;;;;;;6396214;22;20190;-52
2021/01/22 04:24:45;;;;;;;4.07;3.65;;;;;;;;;;6395726;22;20192;-54
2021/01/22 04:27:13;;;;;;;4.40;3.60;;;;;;;;;;6395763;22;20196;-49
2021/01/22 04:29:40;;;;;;;5.20;3.42;;;;;;;;;;6395890;22;20171;-49
2021/01/22 04:32:07;;;;;;;4.18;3.65;;;;;;;;;;6395724;22;20186;-52
2021/01/22 04:34:34;;;;;;;4.05;3.50;;;;;;;;;;6396139;22;20166;-49
2021/01/22 04:37:01;;;;;;;3.85;2.92;;;;;;;;;;6397633;22;20180;-52
2021/01/22 04:39:36;;;;;;;4.10;3.50;;;;;;;;;;6397226;22;20183;-52
2021/01/22 04:42:05;;;;;;;4.03;2.53;;;;;;;;;;6397108;22;20173;-53
2021/01/22 04:44:32;;;;;;;4.13;3.40;;;;;;;;;;6396658;22;20189;-53
2021/01/22 04:46:59;;;;;;;3.15;2.80;;;;;;;;;;6395197;22;20170;-55
2021/01/22 04:49:26;;;;;;;4.20;2.88;;;;;;;;;;6396008;22;20163;-47
2021/01/22 04:52:12;;;;;;;5.53;2.95;;;;;;;;;;6395544;22;20183;-49
2021/01/22 04:54:42;;;;;;;3.70;2.70;;;;;;;;;;6395936;22;20170;-50
2021/01/22 04:57:09;;;;;;;4.20;3.30;;;;;;;;;;6395465;22;20190;-51
2021/01/22 04:59:41;;;;;;;4.13;3.20;;;;;;;;;;6395209;22;20189;-48
2021/01/22 05:02:08;;;;;;;3.95;3.00;;;;;;;;;;6395709;22;20179;-50
2021/01/22 05:04:38;;;;;;;5.47;2.90;;;;;;;;;;6395153;22;20164;-54
2021/01/22 05:07:05;;;;;;;4.25;2.97;;;;;;;;;;6395387;22;20186;-47
2021/01/22 05:09:33;;;;;;;5.22;3.75;;;;;;;;;;6395405;22;20192;-55
2021/01/22 05:11:59;;;;;;;5.50;3.00;;;;;;;;;;6395342;22;20181;-54
2021/01/22 05:14:26;;;;;;;4.45;3.03;;;;;;;;;;6395609;22;20168;-57
2021/01/22 05:17:04;;;;;;;5.00;3.20;;;;;;;;;;6395775;22;20247;-55
2021/01/22 05:19:32;;;;;;;7.15;3.15;;;;;;;;;;6396756;22;20227;-47
2021/01/22 05:22:00;;;;;;;5.25;3.42;;;;;;;;;;6397178;22;20147;-51
2021/01/22 05:24:45;;;;;;;6.68;4.72;;;;;;;;;;6398337;22;20593;-49
2021/01/22 05:27:14;;;;;;;6.82;4.05;;;;;;;;;;6398207;22;20205;-47
2021/01/22 05:29:43;;;;;;;5.68;3.70;;;;;;;;;;6398032;22;20171;-53
2021/01/22 05:32:27;;;;;;;5.43;2.97;;;;;;;;;;6396807;22;20174;-51
2021/01/22 05:34:55;;;;;;;4.65;3.30;;;;;;;;;;6397610;22;20197;-49
2021/01/22 05:37:26;;;;;;;5.40;3.55;;;;;;;;;;6396878;22;20190;-49
2021/01/22 05:40:13;;;;;;;6.55;3.70;;;;;;;;;;6396902;22;20222;-48
2021/01/22 05:42:51;;;;;;;5.70;4.25;;;;;;;;;;6397027;22;20182;-55
2021/01/22 05:45:19;;;;;;;5.00;4.22;;;;;;;;;;6397465;22;20170;-53
2021/01/22 05:47:46;;;;;;;5.43;4.50;;;;;;;;;;6398210;22;20188;-55
2021/01/22 05:50:13;;;;;;;6.43;4.68;;;;;;;;;;6396949;22;20185;-56
2021/01/22 05:52:40;;;;;;;5.20;3.90;;;;;;;;;;6396955;22;20171;-52
2021/01/22 05:58:28;;;;;;;4.85;3.72;;;;;;;;;;6396774;22;20167;-54
2021/01/22 06:01:03;;;;;;;5.32;4.15;;;;;;;;;;6333533;22;20228;-58
2021/01/22 06:03:33;;;;;;;5.78;4.30;;;;;;;;;;6333016;22;20182;-50
2021/01/22 06:06:00;;;;;;;5.20;3.35;;;;;;;;;;6332961;22;20180;-47
2021/01/22 06:08:54;;;;;;;5.15;4.30;;;;;;;;;;6333417;22;20191;-48
2021/01/22 06:11:22;;;;;;;9.77;6.70;;;;;;;;;;6386355;22;20275;-53
2021/01/22 06:13:50;;;;;;;5.97;4.80;;;;;;;;;;6395963;22;20175;-55
2021/01/22 06:16:54;;;;;;;5.95;4.45;;;;;;;;;;6396144;22;20201;-49
2021/01/22 06:19:29;;;;;;;8.95;6.30;;;;;;;;;;6396361;22;20206;-54
2021/01/22 06:22:01;;;;;;;8.35;6.15;;;;;;;;;;6395687;22;20178;-52
2021/01/22 06:24:51;;;;;;;8.38;5.40;;;;;;;;;;6396461;22;20191;-52
2021/01/22 06:27:18;;;;;;;11.75;6.18;;;;;;;;;;6397080;22;20194;-52
2021/01/22 06:29:47;;;;;;;5.80;4.70;;;;;;;;;;6396370;22;20407;-57
2021/01/22 06:32:20;;;;;;;5.70;4.20;;;;;;;;;;6396432;22;20202;-56
2021/01/22 06:34:48;;;;;;;5.30;4.07;;;;;;;;;;6395428;22;20256;-53
2021/01/22 06:37:15;;;;;;;6.53;4.68;;;;;;;;;;6396007;22;20177;-56
2021/01/22 06:39:43;;;;;;;10.93;4.22;;;;;;;;;;6395977;22;20213;-54
2021/01/22 06:42:11;;;;;;;9.15;4.38;;;;;;;;;;6396048;22;20181;-58
2021/01/22 06:44:38;;;;;;;5.72;4.63;;;;;;;;;;6395961;22;20176;-55
2021/01/22 06:47:33;;;;;;;6.72;4.47;;;;;;;;;;6396324;22;20225;-55
2021/01/22 06:50:01;;;;;;;4.20;3.30;;;;;;;;;;6395110;22;20204;-48
2021/01/22 06:52:28;;;;;;;7.15;3.30;;;;;;;;;;6395431;22;20198;-51
2021/01/22 06:55:14;;;;;;;6.03;4.05;;;;;;;;;;6395630;22;20179;-52
2021/01/22 06:57:40;;;;;;;6.18;3.72;;;;;;;;;;6395353;22;20224;-55
2021/01/22 07:00:36;;;;;;;6.20;4.20;;;;;;;;;;6395800;22;20154;-54
2021/01/22 07:03:02;;;;;;;5.07;3.70;;;;;;;;;;6396002;22;20257;-50
2021/01/22 07:05:40;;;;;;;4.07;3.10;;;;;;;;;;6396430;22;20194;-52
2021/01/22 07:08:18;;;;;;;5.88;3.80;;;;;;;;;;6396929;22;20166;-51
2021/01/22 07:10:57;;;;;;;4.70;2.83;;;;;;;;;;6396182;22;20170;-49
2021/01/22 07:13:47;;;;;;;6.32;3.50;;;;;;;;;;6395132;22;20211;-54
2021/01/22 07:16:23;;;;;;;4.13;3.05;;;;;;;;;;6394284;22;20213;-50
2021/01/22 07:18:52;;;;;;;3.75;2.55;;;;;;;;;;6394724;22;20176;-51
2021/01/22 07:21:48;;;;;;;2.95;2.33;;;;;;;;;;6394753;22;20163;-57
2021/01/22 07:24:18;;;;;;;6.22;2.13;;;;;;;;;;6395120;22;20185;-47
2021/01/22 07:26:47;;;;;;;3.05;2.10;;;;;;;;;;6395011;22;20192;-46
2021/01/22 07:29:15;;;;;;;3.53;2.70;;;;;;;;;;6394286;22;20190;-52
2021/01/22 07:31:53;;;;;;;4.75;2.90;;;;;;;;;;6395180;22;20255;-52
2021/01/22 07:34:39;;;;;;;4.57;3.53;;;;;;;;;;6394530;22;20182;-50
2021/01/22 07:37:08;;;;;;;9.90;3.70;;;;;;;;;;6394791;22;20231;-52
2021/01/22 07:39:36;;;;;;;4.05;1.98;;;;;;;;;;6394184;22;20189;-52
2021/01/22 07:42:07;;;;;;;3.78;2.00;;;;;;;;;;6394342;22;20204;-49
2021/01/22 07:47:38;;;;;;;3.78;1.80;;;;;;;;;;6395227;22;20241;-53
2021/01/22 07:50:06;;;;;;;3.15;1.33;;;;;;;;;;6394943;22;20151;-53
2021/01/22 07:52:41;;;;;;;5.50;1.50;;;;;;;;;;6393895;22;20170;-55
2021/01/22 07:55:15;;;;;;;4.18;1.58;;;;;;;;;;6394398;22;20169;-56
2021/01/22 07:57:42;;;;;;;5.25;2.13;;;;;;;;;;6395827;22;20195;-51
2021/01/22 08:00:10;;;;;;;5.10;2.05;;;;;;;;;;6394573;22;20466;-55
2021/01/22 08:02:37;;;;;;;3.38;2.25;;;;;;;;;;6394409;22;20165;-54
2021/01/22 08:05:08;;;;;;;4.00;1.70;;;;;;;;;;6394052;22;20169;-48
2021/01/22 08:07:35;;;;;;;3.15;1.75;;;;;;;;;;6393803;22;20206;-49
2021/01/22 08:10:02;;;;;;;3.00;1.70;;;;;;;;;;6394215;22;20166;-52
2021/01/22 08:12:30;;;;;;;2.85;1.60;;;;;;;;;;6394208;22;20179;-51
2021/01/22 08:14:57;;;;;;;3.88;1.88;;;;;;;;;;6393593;22;20252;-54
2021/01/22 08:17:24;;;;;;;4.25;1.40;;;;;;;;;;6393971;22;20217;-52
2021/01/22 08:19:51;;;;;;;3.95;1.73;;;;;;;;;;6394227;22;20227;-50
2021/01/22 08:22:18;;;;;;;2.42;1.50;;;;;;;;;;6394399;22;20168;-54
2021/01/22 08:24:46;;;;;;;2.90;1.55;;;;;;;;;;6394954;22;20181;-57
2021/01/22 08:27:13;;;;;;;2.63;1.83;;;;;;;;;;6394358;22;20178;-54
2021/01/22 08:29:57;;;;;;;8.98;2.42;;;;;;;;;;6395027;22;20210;-50
2021/01/22 08:32:25;;;;;;;6.13;2.40;;;;;;;;;;6394247;22;20199;-49
2021/01/22 08:34:52;;;;;;;3.97;1.60;;;;;;;;;;6394929;22;20167;-61
2021/01/22 08:37:25;;;;;;;3.78;1.88;;;;;;;;;;6394733;22;20218;-52
2021/01/22 08:40:04;;;;;;;4.25;1.70;;;;;;;;;;6394980;22;20470;-53
2021/01/22 08:42:32;;;;;;;3.17;2.10;;;;;;;;;;6392741;22;20177;-50
2021/01/22 08:45:01;;;;;;;5.38;1.50;;;;;;;;;;6391429;22;20183;-58
2021/01/22 08:47:28;;;;;;;4.53;1.58;;;;;;;;;;6391692;22;20228;-56
2021/01/22 08:50:04;;;;;;;3.53;1.50;;;;;;;;;;6393171;22;20207;-54
2021/01/22 08:52:31;;;;;;;4.22;2.08;;;;;;;;;;6393413;22;20221;-52
2021/01/22 08:54:59;;;;;;;4.55;1.70;;;;;;;;;;6395919;22;20166;-54
2021/01/22 08:57:34;;;;;;;4.28;2.00;;;;;;;;;;6393954;22;20190;-53
2021/01/22 09:00:02;;;;;;;6.93;2.55;;;;;;;;;;6395369;22;20192;-51
2021/01/22 09:02:39;;;;;;;7.32;1.90;;;;;;;;;;6393413;22;20176;-51
2021/01/22 09:05:10;;;;;;;4.60;1.65;;;;;;;;;;6394530;22;20166;-57
2021/01/22 09:07:39;;;;;;;3.85;1.65;;;;;;;;;;6393712;22;20183;-56
2021/01/22 09:10:29;;;;;;;2.70;1.40;;;;;;;;;;6393489;22;20167;-52
2021/01/22 09:13:24;;;;;;;3.28;1.45;;;;;;;;;;6389882;22;20232;-52
2021/01/22 09:16:11;;;;;;;3.30;1.70;;;;;;;;;;6392731;22;20181;-51
2021/01/22 09:18:59;;;;;;;5.13;1.95;;;;;;;;;;6390651;22;20182;-60
2021/01/22 09:21:28;;;;;;;6.78;3.78;;;;;;;;;;6391669;22;20217;-52
2021/01/22 09:23:56;;;;;;;6.88;4.10;;;;;;;;;;6390780;22;20185;-52
2021/01/22 09:29:27;;;;;;;5.75;4.85;;;;;;;;;;6391467;22;20228;-46
2021/01/22 09:31:56;;;;;;;16.27;11.77;;;;;;;;;;6393769;22;20165;-50
2021/01/22 09:34:26;;;;;;;21.10;15.98;;;;;;;;;;6392668;22;20180;-54
2021/01/22 09:36:53;;;;;;;26.00;18.00;;;;;;;;;;6391530;22;20197;-54
2021/01/22 09:39:28;;;;;;;14.98;11.82;;;;;;;;;;6392346;22;20191;-52
2021/01/22 09:41:57;;;;;;;12.52;7.97;;;;;;;;;;6391246;22;20185;-56
2021/01/22 09:44:24;;;;;;;5.80;3.17;;;;;;;;;;6392336;22;20253;-56
2021/01/22 09:47:04;;;;;;;4.95;2.10;;;;;;;;;;6391885;22;20199;-51
2021/01/22 09:49:52;;;;;;;4.05;2.00;;;;;;;;;;6393708;22;20165;-60
2021/01/22 09:52:23;;;;;;;7.80;1.83;;;;;;;;;;6391741;22;20192;-52
2021/01/22 09:57:54;;;;;;;3.47;1.80;;;;;;;;;;6391340;22;20203;-50
2021/01/22 10:00:21;;;;;;;3.25;1.50;;;;;;;;;;6390748;22;20211;-57
2021/01/22 10:02:51;;;;;;;3.65;1.60;;;;;;;;;;6391556;22;20166;-59
2021/01/22 10:05:22;;;;;;;6.20;1.10;;;;;;;;;;6390435;22;20181;-56
2021/01/22 10:07:49;;;;;;;4.30;1.70;;;;;;;;;;6390366;22;20247;-52
2021/01/22 10:10:22;;;;;;;2.40;1.13;;;;;;;;;;6392791;22;20165;-56
2021/01/22 10:13:00;;;;;;;3.22;1.30;;;;;;;;;;6391736;22;20165;-53
2021/01/22 10:15:27;;;;;;;3.60;1.42;;;;;;;;;;6391408;22;20224;-53
2021/01/22 10:17:55;;;;;;;2.83;1.70;;;;;;;;;;6391258;22;20197;-56
2021/01/22 10:20:24;;;;;;;4.20;1.92;;;;;;;;;;6393664;22;20211;-60
2021/01/22 10:22:52;;;;;;;4.28;1.60;;;;;;;;;;6392237;22;20202;-51
2021/01/22 10:25:19;;;;;;;2.70;1.38;;;;;;;;;;6392396;22;20178;-55
2021/01/22 10:27:46;;;;;;;4.65;1.88;;;;;;;;;;6391766;22;20620;-52
2021/01/22 10:30:18;;;;;;;5.88;2.55;;;;;;;;;;6393181;22;20178;-56
2021/01/22 10:33:26;;;;;;;8.32;2.00;;;;;;;;;;6393345;22;20208;-55
2021/01/22 10:35:57;;;;;;;6.90;1.87;;;;;;;;;;6379987;22;20199;-51
2021/01/22 10:38:24;;;;;;;5.38;2.50;;;;;;;;;;6392745;22;20888;-53
2021/01/22 10:40:51;;;;;;;6.97;2.13;;;;;;;;;;6393687;22;20185;-54
2021/01/22 10:43:32;;;;;;;7.55;2.58;;;;;;;;;;6394170;22;20172;-48
2021/01/22 10:45:59;;;;;;;28.83;3.55;;;;;;;;;;6393658;22;20347;-56
2021/01/22 10:48:28;;;;;;;4.35;2.10;;;;;;;;;;6392726;22;20178;-57
2021/01/22 10:51:02;;;;;;;6.80;2.25;;;;;;;;;;6393329;22;20190;-55
2021/01/22 10:53:33;;;;;;;4.90;2.47;;;;;;;;;;6392954;22;20193;-55
2021/01/22 10:56:01;;;;;;;5.30;2.28;;;;;;;;;;6389746;22;20245;-54
2021/01/22 10:58:30;;;;;;;5.10;2.15;;;;;;;;;;6391854;22;20177;-52
2021/01/22 11:00:58;;;;;;;10.77;3.25;;;;;;;;;;6393051;22;20261;-55
2021/01/22 11:03:28;;;;;;;4.53;2.00;;;;;;;;;;6392368;22;20185;-56
2021/01/22 11:05:56;;;;;;;6.43;2.78;;;;;;;;;;6392321;22;20167;-48
2021/01/22 11:08:42;;;;;;;7.10;2.00;;;;;;;;;;6392944;22;20154;-55
2021/01/22 11:11:11;;;;;;;5.85;2.30;;;;;;;;;;6385397;22;20173;-56
2021/01/22 11:13:38;;;;;;;5.40;2.28;;;;;;;;;;6391953;22;20181;-55
2021/01/22 11:16:06;;;;;;;5.70;2.15;;;;;;;;;;6392021;22;20197;-49
2021/01/22 11:18:42;;;;;;;8.02;2.65;;;;;;;;;;6390920;22;20246;-54
2021/01/22 11:21:13;;;;;;;5.90;2.50;;;;;;;;;;6391354;22;20176;-55
2021/01/22 11:23:42;;;;;;;7.78;1.90;;;;;;;;;;6394323;22;20414;-53
2021/01/22 11:26:10;;;;;;;5.95;2.92;;;;;;;;;;6392028;22;20584;-55
2021/01/22 11:28:42;;;;;;;5.80;3.20;;;;;;;;;;6391570;22;20178;-53
2021/01/22 11:31:30;;;;;;;6.45;3.00;;;;;;;;;;6392004;22;20185;-51
2021/01/22 11:34:02;;;;;;;9.48;2.80;;;;;;;;;;6392745;22;20189;-49
2021/01/22 11:36:51;;;;;;;6.32;2.50;;;;;;;;;;6393303;22;20250;-55
2021/01/22 11:39:24;;;;;;;4.75;2.55;;;;;;;;;;6393085;22;20189;-54
2021/01/22 11:41:51;;;;;;;7.00;2.88;;;;;;;;;;6390005;22;20193;-57
2021/01/22 11:44:27;;;;;;;9.60;2.47;;;;;;;;;;6391500;22;20181;-53
2021/01/22 11:46:56;;;;;;;5.32;2.78;;;;;;;;;;6393561;22;20414;-53
2021/01/22 11:52:12;;;;;;;4.40;1.83;;;;;;;;;;6392060;22;20349;-57
2021/01/22 11:54:39;;;;;;;6.45;1.88;;;;;;;;;;6392199;22;20533;-55
2021/01/22 11:57:06;;;;;;;3.47;1.90;;;;;;;;;;6391172;22;20308;-52
2021/01/22 11:59:37;;;;;;;8.02;2.88;;;;;;;;;;6391797;22;20402;-54
2021/01/22 12:02:19;;;;;;;6.95;2.40;;;;;;;;;;6391919;22;20192;-52
2021/01/22 12:07:48;;;;;;;4.30;2.10;;;;;;;;;;6390125;22;20479;-58
2021/01/22 12:10:20;;;;;;;6.65;2.08;;;;;;;;;;6391571;22;20258;-51
2021/01/22 12:12:47;;;;;;;4.45;1.90;;;;;;;;;;6391846;22;20220;-50
2021/01/22 12:15:15;;;;;;;7.70;2.80;;;;;;;;;;6389779;22;20223;-60
2021/01/22 12:17:47;;;;;;;5.85;1.92;;;;;;;;;;6391633;22;20205;-53
2021/01/22 12:20:15;;;;;;;3.55;1.80;;;;;;;;;;6390511;22;20189;-56
2021/01/22 12:22:42;;;;;;;7.15;2.35;;;;;;;;;;6390913;22;20177;-56
2021/01/22 12:25:26;;;;;;;6.47;3.20;;;;;;;;;;6389904;22;20245;-56
2021/01/22 12:27:54;;;;;;;3.43;2.17;;;;;;;;;;6389274;22;20451;-50
2021/01/22 12:30:23;;;;;;;8.23;3.35;;;;;;;;;;6391375;22;20417;-54
2021/01/22 12:33:06;;;;;;;7.20;2.20;;;;;;;;;;6392485;22;20216;-54
2021/01/22 12:35:34;;;;;;;3.00;1.77;;;;;;;;;;6391733;22;20390;-46
2021/01/22 12:38:06;;;;;;;7.03;2.47;;;;;;;;;;6392199;22;20232;-52
2021/01/22 12:40:34;;;;;;;4.07;2.00;;;;;;;;;;6392388;22;20402;-56
2021/01/22 12:43:04;;;;;;;8.53;2.60;;;;;;;;;;6390648;22;20403;-59
2021/01/22 12:45:32;;;;;;;7.70;2.47;;;;;;;;;;6389285;22;20415;-55
2021/01/22 12:48:25;;;;;;;7.73;3.17;;;;;;;;;;6390721;22;20391;-54
2021/01/22 12:50:57;;;;;;;4.97;2.25;;;;;;;;;;6389787;22;20433;-51
2021/01/22 12:53:26;;;;;;;5.80;2.63;;;;;;;;;;6391464;22;20276;-50
2021/01/22 12:56:13;;;;;;;4.20;1.80;;;;;;;;;;6392428;22;20494;-56
2021/01/22 12:58:40;;;;;;;4.20;2.20;;;;;;;;;;6391434;22;20411;-60
2021/01/22 13:01:07;;;;;;;4.87;2.20;;;;;;;;;;6391248;22;20482;-56
2021/01/22 13:03:34;;;;;;;5.70;2.90;;;;;;;;;;6390976;22;20414;-51
2021/01/22 13:06:02;;;;;;;11.75;3.38;;;;;;;;;;6392409;22;20443;-50
2021/01/22 13:08:36;;;;;;;6.00;2.25;;;;;;;;;;6392455;22;20166;-48
2021/01/22 13:11:12;;;;;;;6.50;2.80;;;;;;;;;;6392675;22;20355;-53
2021/01/22 13:13:40;;;;;;;6.15;2.70;;;;;;;;;;6390752;22;20197;-51
2021/01/22 13:16:07;;;;;;;6.50;2.88;;;;;;;;;;6390857;22;20188;-51
2021/01/22 13:18:36;;;;;;;4.85;2.70;;;;;;;;;;6390740;22;20186;-56
2021/01/22 13:21:09;;;;;;;3.60;2.00;;;;;;;;;;6390623;22;20245;-52
2021/01/22 13:23:36;;;;;;;5.45;2.40;;;;;;;;;;6390752;22;20415;-55
2021/01/22 13:26:17;;;;;;;7.03;3.07;;;;;;;;;;6389569;22;20311;-50
2021/01/22 13:28:45;;;;;;;7.18;2.50;;;;;;;;;;6390867;22;20398;-53
2021/01/22 13:31:18;;;;;;;5.07;2.37;;;;;;;;;;6392481;22;20182;-59
2021/01/22 13:33:56;;;;;;;3.80;2.40;;;;;;;;;;6391655;22;20453;-48
2021/01/22 13:36:22;;;;;;;6.18;2.72;;;;;;;;;;6391869;22;20453;-51
2021/01/22 13:38:49;;;;;;;5.15;2.40;;;;;;;;;;6390830;22;20178;-54
2021/01/22 13:41:24;;;;;;;7.22;2.88;;;;;;;;;;6384801;22;20199;-51
2021/01/22 13:44:00;;;;;;;10.30;2.60;;;;;;;;;;6388541;22;20168;-53
2021/01/22 13:46:27;;;;;;;3.50;2.40;;;;;;;;;;6392442;22;20192;-55
2021/01/22 13:48:55;;;;;;;7.50;2.38;;;;;;;;;;6391974;22;20479;-50
2021/01/22 13:51:24;;;;;;;2.83;1.80;;;;;;;;;;6392594;22;20256;-59
2021/01/22 13:53:55;;;;;;;6.07;2.20;;;;;;;;;;6392455;22;20444;-51
2021/01/22 13:56:28;;;;;;;6.50;2.10;;;;;;;;;;6393338;22;20457;-54
2021/01/22 13:59:01;;;;;;;4.70;1.83;;;;;;;;;;6392116;22;20403;-51
2021/01/22 14:01:45;;;;;;;5.55;2.50;;;;;;;;;;6391762;22;20424;-56
2021/01/22 14:04:20;;;;;;;5.55;2.63;;;;;;;;;;6393686;22;20195;-52
2021/01/22 14:06:57;;;;;;;5.50;2.67;;;;;;;;;;6394253;22;20199;-50
2021/01/22 14:09:24;;;;;;;5.00;2.03;;;;;;;;;;6392845;22;20403;-55
2021/01/22 14:11:53;;;;;;;7.95;2.50;;;;;;;;;;6393465;22;20399;-58
2021/01/22 14:14:27;;;;;;;6.00;1.90;;;;;;;;;;6394714;22;20160;-59
2021/01/22 14:16:57;;;;;;;7.50;2.30;;;;;;;;;;6394091;22;20437;-55
2021/01/22 14:19:34;;;;;;;4.72;2.22;;;;;;;;;;6394717;22;20197;-58
2021/01/22 14:22:09;;;;;;;4.47;2.57;;;;;;;;;;6394749;22;20219;-46
2021/01/22 14:24:38;;;;;;;7.83;2.40;;;;;;;;;;6394047;22;20406;-56
2021/01/22 14:27:13;;;;;;;4.03;2.20;;;;;;;;;;6395737;22;20422;-53
2021/01/22 14:29:41;;;;;;;5.50;2.47;;;;;;;;;;6366867;22;20172;-52
2021/01/22 14:32:11;;;;;;;6.78;3.55;;;;;;;;;;6393806;22;20161;-50
2021/01/22 14:34:55;;;;;;;6.97;3.50;;;;;;;;;;6392629;22;20655;-55
2021/01/22 14:37:23;;;;;;;8.60;2.50;;;;;;;;;;6390441;22;20236;-56
2021/01/22 14:39:52;;;;;;;4.10;2.10;;;;;;;;;;6391536;22;20518;-49
2021/01/22 14:42:25;;;;;;;3.90;2.38;;;;;;;;;;6392343;22;20468;-51
2021/01/22 14:44:54;;;;;;;8.70;2.90;;;;;;;;;;6391567;22;20206;-57
2021/01/22 14:47:21;;;;;;;6.22;2.28;;;;;;;;;;6393509;22;20166;-53
2021/01/22 14:50:06;;;;;;;5.82;2.63;;;;;;;;;;6393269;22;20185;-56
2021/01/22 14:52:35;;;;;;;4.20;2.15;;;;;;;;;;6393526;22;20172;-53
2021/01/22 14:55:10;;;;;;;7.22;3.00;;;;;;;;;;6393980;22;20258;-56
2021/01/22 14:57:39;;;;;;;6.88;3.10;;;;;;;;;;6367401;22;20216;-54
2021/01/22 15:00:23;;;;;;;12.23;3.63;;;;;;;;;;6393896;22;20161;-58
2021/01/22 15:03:02;;;;;;;6.93;2.38;;;;;;;;;;6390486;22;20232;-56
2021/01/22 15:05:31;;;;;;;8.27;2.70;;;;;;;;;;6392741;22;20180;-52
2021/01/22 15:08:00;;;;;;;5.97;2.90;;;;;;;;;;6393297;22;20177;-55
2021/01/22 15:10:28;;;;;;;5.18;2.78;;;;;;;;;;6392838;22;20195;-52
2021/01/22 15:13:17;;;;;;;6.75;2.75;;;;;;;;;;6391264;22;20181;-56
2021/01/22 15:15:55;;;;;;;5.53;3.38;;;;;;;;;;6383589;22;20183;-55
2021/01/22 15:18:29;;;;;;;7.30;2.90;;;;;;;;;;6393900;22;20256;-57
2021/01/22 15:21:13;;;;;;;7.70;2.88;;;;;;;;;;6393660;22;20180;-56
2021/01/22 15:24:00;;;;;;;9.88;2.75;;;;;;;;;;6392054;22;20220;-57
2021/01/22 15:26:32;;;;;;;6.60;3.10;;;;;;;;;;6391417;22;20215;-59
2021/01/22 15:28:59;;;;;;;15.27;2.80;;;;;;;;;;6392339;22;20241;-58
2021/01/22 15:31:31;;;;;;;6.75;2.63;;;;;;;;;;6391925;22;20215;-49